Time,TemperatureF,DewpointF,PressureIn,WindDirection,WindDirectionDegrees,WindSpeedMPH,WindSpeedGustMPH,Humidity,HourlyPrecipIn,Conditions,Clouds,dailyrainin,SoftwareType,DateUTC
2013-01-29 00:17:00,17.8,15.9,30.01,ESE,112,0.0,-999.0,92,-99.99,,,0.00,Acu-Link.com,2013-01-29 05:17:00,
2013-01-29 00:32:00,17.8,15.9,30.00,ESE,112,0.0,-999.0,92,-99.99,,,0.00,Acu-Link.com,2013-01-29 05:32:00,
2013-01-29 00:48:00,17.8,15.6,30.00,ESE,112,0.0,-999.0,91,-99.99,,,0.00,Acu-Link.com,2013-01-29 05:48:00,
2013-01-29 01:03:00,17.8,15.9,30.01,ESE,112,0.0,-999.0,92,-99.99,,,0.00,Acu-Link.com,2013-01-29 06:03:00,
2013-01-29 01:18:00,17.8,15.9,30.00,ESE,112,0.0,-999.0,92,-99.99,,,0.00,Acu-Link.com,2013-01-29 06:18:00,
2013-01-29 01:33:00,18.0,16.1,30.01,ESE,112,0.0,-999.0,92,-99.99,,,0.00,Acu-Link.com,2013-01-29 06:33:00,
2013-01-29 01:48:00,17.8,15.9,30.01,ESE,112,0.0,-999.0,92,-99.99,,,0.00,Acu-Link.com,2013-01-29 06:48:00,
2013-01-29 02:04:00,17.4,15.2,30.01,ESE,112,0.0,-999.0,91,-99.99,,,0.00,Acu-Link.com,2013-01-29 07:04:00,
2013-01-29 02:19:00,17.1,15.2,30.02,ESE,112,0.0,-999.0,92,-99.99,,,0.00,Acu-Link.com,2013-01-29 07:19:00,
2013-01-29 02:34:00,16.3,14.1,30.02,ESE,112,0.0,-999.0,91,-99.99,,,0.00,Acu-Link.com,2013-01-29 07:34:00,
2013-01-29 02:49:00,15.6,13.2,30.01,ESE,112,0.0,-999.0,90,-99.99,,,0.00,Acu-Link.com,2013-01-29 07:49:00,
2013-01-29 03:04:00,14.9,12.3,30.01,ESE,112,0.0,-999.0,89,-99.99,,,0.00,Acu-Link.com,2013-01-29 08:04:00,
2013-01-29 03:20:00,13.8,10.9,30.02,ESE,112,0.0,-999.0,88,-99.99,,,0.00,Acu-Link.com,2013-01-29 08:20:00,
2013-01-29 03:35:00,13.5,10.6,30.01,ESE,112,0.0,-999.0,88,-99.99,,,0.00,Acu-Link.com,2013-01-29 08:35:00,
2013-01-29 03:50:00,12.6,9.7,30.02,ESE,112,0.0,-999.0,88,-99.99,,,0.00,Acu-Link.com,2013-01-29 08:50:00,
2013-01-29 04:15:00,12.2,9.3,30.02,ESE,112,0.0,-999.0,88,-99.99,,,0.00,Acu-Link.com,2013-01-29 09:15:00,
2013-01-29 04:30:00,11.8,8.9,30.03,ESE,112,0.0,-999.0,88,-99.99,,,0.00,Acu-Link.com,2013-01-29 09:30:00,
2013-01-29 04:46:00,11.3,8.5,30.02,ESE,112,0.0,-999.0,88,-99.99,,,0.00,Acu-Link.com,2013-01-29 09:46:00,
2013-01-29 05:01:00,10.8,8.0,30.03,ESE,112,0.0,-999.0,88,-99.99,,,0.00,Acu-Link.com,2013-01-29 10:01:00,
2013-01-29 05:16:00,10.4,7.6,30.03,ESE,112,0.0,-999.0,88,-99.99,,,0.00,Acu-Link.com,2013-01-29 10:16:00,
2013-01-29 05:31:00,9.7,6.9,30.05,NW,315,0.0,-999.0,88,-99.99,,,0.00,Acu-Link.com,2013-01-29 10:31:00,
2013-01-29 05:46:00,9.5,6.7,30.05,NW,315,0.0,-999.0,88,-99.99,,,0.00,Acu-Link.com,2013-01-29 10:46:00,
2013-01-29 06:01:00,9.3,6.5,30.06,NW,315,0.0,-999.0,88,-99.99,,,0.00,Acu-Link.com,2013-01-29 11:01:00,
2013-01-29 06:17:00,9.1,6.3,30.06,NW,315,0.0,-999.0,88,-99.99,,,0.00,Acu-Link.com,2013-01-29 11:17:00,
2013-01-29 06:32:00,9.0,6.2,30.06,WNW,292,0.0,-999.0,88,-99.99,,,0.00,Acu-Link.com,2013-01-29 11:32:00,
2013-01-29 06:47:00,8.4,5.3,30.05,NW,315,0.0,-999.0,87,-99.99,,,0.00,Acu-Link.com,2013-01-29 11:47:00,
2013-01-29 07:02:00,8.1,5.0,30.05,NW,315,0.0,-999.0,87,-99.99,,,0.00,Acu-Link.com,2013-01-29 12:02:00,
2013-01-29 07:18:00,8.1,5.0,30.05,South,180,0.0,-999.0,87,-99.99,,,0.00,Acu-Link.com,2013-01-29 12:18:00,
2013-01-29 07:33:00,8.1,5.0,30.07,NNW,337,0.0,-999.0,87,-99.99,,,0.00,Acu-Link.com,2013-01-29 12:33:00,
2013-01-29 07:48:00,8.2,5.1,30.07,NW,315,0.0,-999.0,87,-99.99,,,0.00,Acu-Link.com,2013-01-29 12:48:00,
2013-01-29 08:03:00,8.6,5.5,30.08,NE,45,0.0,-999.0,87,-99.99,,,0.00,Acu-Link.com,2013-01-29 13:03:00,
2013-01-29 08:19:00,9.7,7.1,30.08,ENE,67,0.0,-999.0,89,-99.99,,,0.00,Acu-Link.com,2013-01-29 13:19:00,
2013-01-29 08:34:00,11.5,9.1,30.10,East,90,0.0,-999.0,90,-99.99,,,0.00,Acu-Link.com,2013-01-29 13:34:00,
2013-01-29 08:49:00,13.1,11.0,30.12,East,90,0.0,-999.0,91,-99.99,,,0.00,Acu-Link.com,2013-01-29 13:49:00,
2013-01-29 09:04:00,14.9,12.8,30.12,South,180,0.0,-999.0,91,-99.99,,,0.00,Acu-Link.com,2013-01-29 14:04:00,
2013-01-29 09:20:00,16.5,14.1,30.12,ESE,112,0.0,-999.0,90,-99.99,,,0.00,Acu-Link.com,2013-01-29 14:20:00,
2013-01-29 09:35:00,20.7,17.7,30.13,ESE,112,0.0,-999.0,88,-99.99,,,0.00,Acu-Link.com,2013-01-29 14:35:00,
2013-01-29 09:50:00,24.4,18.8,30.14,East,90,0.0,-999.0,79,-99.99,,,0.00,Acu-Link.com,2013-01-29 14:50:00,
2013-01-29 10:05:00,23.5,18.8,30.14,SSW,202,0.0,-999.0,82,-99.99,,,0.00,Acu-Link.com,2013-01-29 15:05:00,
2013-01-29 10:21:00,24.4,20.0,30.14,NW,315,0.0,-999.0,83,-99.99,,,0.00,Acu-Link.com,2013-01-29 15:21:00,
2013-01-29 10:36:00,31.1,25.1,30.13,SSE,157,0.0,-999.0,78,-99.99,,,0.00,Acu-Link.com,2013-01-29 15:36:00,
2013-01-29 10:51:00,31.8,24.5,30.12,SE,135,0.0,-999.0,74,-99.99,,,0.00,Acu-Link.com,2013-01-29 15:51:00,
2013-01-29 11:06:00,32.5,25.2,30.11,ESE,112,0.0,-999.0,74,-99.99,,,0.00,Acu-Link.com,2013-01-29 16:06:00,
2013-01-29 11:21:00,28.0,23.5,30.11,SSW,202,0.0,-999.0,83,-99.99,,,0.01,Acu-Link.com,2013-01-29 16:21:00,
2013-01-29 11:37:00,31.5,25.1,30.11,South,180,0.0,-999.0,77,-99.99,,,0.01,Acu-Link.com,2013-01-29 16:37:00,
2013-01-29 11:52:00,31.1,24.4,30.11,South,180,0.0,-999.0,76,-99.99,,,0.01,Acu-Link.com,2013-01-29 16:52:00,
2013-01-29 12:07:00,31.5,25.4,30.12,NE,45,0.0,-999.0,78,-99.99,,,0.01,Acu-Link.com,2013-01-29 17:07:00,
2013-01-29 12:22:00,31.5,25.4,30.11,East,90,0.0,-999.0,78,-99.99,,,0.01,Acu-Link.com,2013-01-29 17:22:00,
2013-01-29 12:38:00,31.1,25.1,30.11,ESE,112,0.0,-999.0,78,-99.99,,,0.01,Acu-Link.com,2013-01-29 17:38:00,
2013-01-29 12:53:00,31.3,25.3,30.11,NE,45,0.0,-999.0,78,-99.99,,,0.01,Acu-Link.com,2013-01-29 17:53:00,
2013-01-29 13:08:00,31.1,25.7,30.11,SW,225,0.0,-999.0,80,-99.99,,,0.01,Acu-Link.com,2013-01-29 18:08:00,
2013-01-29 13:23:00,31.1,25.7,30.11,South,180,0.0,-999.0,80,-99.99,,,0.01,Acu-Link.com,2013-01-29 18:23:00,
2013-01-29 13:38:00,31.3,25.6,30.10,ESE,112,0.0,-999.0,79,-99.99,,,0.01,Acu-Link.com,2013-01-29 18:38:00,
2013-01-29 13:54:00,31.8,26.6,30.09,South,180,0.0,-999.0,81,-99.99,,,0.01,Acu-Link.com,2013-01-29 18:54:00,
2013-01-29 14:09:00,31.8,26.3,30.09,SSW,202,0.0,-999.0,80,-99.99,,,0.01,Acu-Link.com,2013-01-29 19:09:00,
2013-01-29 14:24:00,31.5,26.1,30.08,SW,225,0.0,-999.0,80,-99.99,,,0.01,Acu-Link.com,2013-01-29 19:24:00,
2013-01-29 14:39:00,31.8,27.2,30.07,WSW,247,0.0,-999.0,83,-99.99,,,0.01,Acu-Link.com,2013-01-29 19:39:00,
2013-01-29 14:54:00,31.6,27.0,30.08,SSW,202,0.0,-999.0,83,-99.99,,,0.01,Acu-Link.com,2013-01-29 19:54:00,
2013-01-29 15:10:00,31.5,27.2,30.09,SSW,202,0.0,-999.0,84,-99.99,,,0.01,Acu-Link.com,2013-01-29 20:10:00,
2013-01-29 15:25:00,31.1,26.8,30.08,SSW,202,0.0,-999.0,84,-99.99,,,0.01,Acu-Link.com,2013-01-29 20:25:00,
2013-01-29 15:40:00,30.4,27.3,30.10,WNW,292,0.0,-999.0,88,-99.99,,,0.01,Acu-Link.com,2013-01-29 20:40:00,
2013-01-29 15:55:00,29.8,26.4,30.11,WNW,292,0.0,-999.0,87,-99.99,,,0.01,Acu-Link.com,2013-01-29 20:55:00,
2013-01-29 16:10:00,28.9,25.8,30.11,NNW,337,0.0,-999.0,88,-99.99,,,0.01,Acu-Link.com,2013-01-29 21:10:00,
2013-01-29 16:26:00,28.4,25.8,30.09,NNW,337,0.0,-999.0,90,-99.99,,,0.01,Acu-Link.com,2013-01-29 21:26:00,
2013-01-29 16:41:00,27.5,25.2,30.11,NNW,337,0.0,-999.0,91,-99.99,,,0.01,Acu-Link.com,2013-01-29 21:41:00,
2013-01-29 16:56:00,27.1,24.8,30.12,NNW,337,0.0,-999.0,91,-99.99,,,0.01,Acu-Link.com,2013-01-29 21:56:00,
2013-01-29 17:11:00,26.8,24.8,30.12,NNW,337,0.0,-999.0,92,-99.99,,,0.01,Acu-Link.com,2013-01-29 22:11:00,
2013-01-29 17:26:00,26.4,24.4,30.12,NNW,337,0.0,-999.0,92,-99.99,,,0.01,Acu-Link.com,2013-01-29 22:26:00,
2013-01-29 17:42:00,25.9,24.2,30.14,NNW,337,0.0,-999.0,93,-99.99,,,0.01,Acu-Link.com,2013-01-29 22:42:00,
2013-01-29 17:57:00,25.5,23.8,30.13,NNW,337,0.0,-999.0,93,-99.99,,,0.01,Acu-Link.com,2013-01-29 22:57:00,
2013-01-29 18:12:00,25.3,23.6,30.14,NNW,337,0.0,-999.0,93,-99.99,,,0.01,Acu-Link.com,2013-01-29 23:12:00,
2013-01-29 18:28:00,25.3,23.8,30.13,NNW,337,0.0,-999.0,94,-99.99,,,0.01,Acu-Link.com,2013-01-29 23:28:00,
2013-01-29 18:43:00,25.3,23.8,30.12,NNW,337,0.0,-999.0,94,-99.99,,,0.01,Acu-Link.com,2013-01-29 23:43:00,
2013-01-29 18:58:00,25.3,24.1,30.12,NNW,337,0.0,-999.0,95,-99.99,,,0.01,Acu-Link.com,2013-01-29 23:58:00,
2013-01-29 19:14:00,25.5,24.3,30.12,NNW,337,0.0,-999.0,95,-99.99,,,0.01,Acu-Link.com,2013-01-30 00:14:00,
2013-01-29 19:29:00,25.7,24.5,30.13,North,0,0.0,-999.0,95,-99.99,,,0.01,Acu-Link.com,2013-01-30 00:29:00,
2013-01-29 19:44:00,25.7,24.2,30.12,NNE,22,0.0,-999.0,94,-99.99,,,0.01,Acu-Link.com,2013-01-30 00:44:00,
2013-01-29 19:59:00,25.7,24.2,30.12,NNE,22,0.0,-999.0,94,-99.99,,,0.01,Acu-Link.com,2013-01-30 00:59:00,
2013-01-29 20:15:00,25.9,24.7,30.11,NNE,22,0.0,-999.0,95,-99.99,,,0.01,Acu-Link.com,2013-01-30 01:15:00,
2013-01-29 20:30:00,25.9,24.7,30.11,NNE,22,0.0,-999.0,95,-99.99,,,0.01,Acu-Link.com,2013-01-30 01:30:00,
2013-01-29 20:45:00,25.9,24.7,30.11,NNE,22,0.0,-999.0,95,-99.99,,,0.01,Acu-Link.com,2013-01-30 01:45:00,
2013-01-29 21:00:00,25.9,24.7,30.12,NNE,22,0.0,-999.0,95,-99.99,,,0.01,Acu-Link.com,2013-01-30 02:00:00,
2013-01-29 21:16:00,25.9,24.7,30.11,NNE,22,0.0,-999.0,95,-99.99,,,0.01,Acu-Link.com,2013-01-30 02:16:00,
2013-01-29 21:31:00,25.9,24.9,30.12,NNE,22,0.0,-999.0,96,-99.99,,,0.01,Acu-Link.com,2013-01-30 02:31:00,
2013-01-29 21:46:00,25.9,24.9,30.12,NE,45,0.0,-999.0,96,-99.99,,,0.01,Acu-Link.com,2013-01-30 02:46:00,
2013-01-29 22:01:00,26.1,25.1,30.12,NE,45,0.0,-999.0,96,-99.99,,,0.01,Acu-Link.com,2013-01-30 03:01:00,
2013-01-29 22:17:00,26.2,25.2,30.10,NNE,22,0.0,-999.0,96,-99.99,,,0.01,Acu-Link.com,2013-01-30 03:17:00,
2013-01-29 22:32:00,26.4,25.7,30.11,NNE,22,0.0,-999.0,97,-99.99,,,0.01,Acu-Link.com,2013-01-30 03:32:00,
2013-01-29 22:47:00,26.6,25.9,30.10,NNE,22,0.0,-999.0,97,-99.99,,,0.01,Acu-Link.com,2013-01-30 03:47:00,
2013-01-29 23:02:00,26.6,25.9,30.09,NNE,22,0.0,-999.0,97,-99.99,,,0.01,Acu-Link.com,2013-01-30 04:02:00,
2013-01-29 23:17:00,26.6,26.1,30.09,NNE,22,0.0,-999.0,98,-99.99,,,0.01,Acu-Link.com,2013-01-30 04:17:00,
2013-01-29 23:33:00,26.6,26.1,30.09,North,0,0.0,-999.0,98,-99.99,,,0.01,Acu-Link.com,2013-01-30 04:33:00,
2013-01-29 23:48:00,26.6,26.1,30.09,North,0,0.0,-999.0,98,-99.99,,,0.01,Acu-Link.com,2013-01-30 04:48:00,